Time,TemperatureF,DewpointF,PressureIn,WindDirection,WindDirectionDegrees,WindSpeedMPH,WindSpeedGustMPH,Humidity,HourlyPrecipIn,Conditions,Clouds,dailyrainin,SolarRadiationWatts/m^2,SoftwareType,DateUTC
2013-02-25 00:00:00,44.9,37.8,30.12,SSE,153,9.0,13.0,76,0.01,,---,0.00,0.00,VWS V14.01,2013-02-25 08:00:00,
2013-02-25 00:05:00,45.0,37.6,30.12,SSW,193,4.0,17.0,75,0.01,,---,0.00,0.00,VWS V14.01,2013-02-25 08:05:00,
2013-02-25 00:10:00,45.4,37.6,30.12,South,191,14.0,18.0,74,0.01,,---,0.00,0.00,VWS V14.01,2013-02-25 08:10:00,
2013-02-25 00:15:00,45.5,37.7,30.12,South,177,11.0,22.0,74,0.01,,---,0.00,0.00,VWS V14.01,2013-02-25 08:15:00,
2013-02-25 00:20:00,45.5,37.7,30.12,South,169,2.0,16.0,74,0.01,,---,0.00,0.00,VWS V14.01,2013-02-25 08:20:00,
2013-02-25 00:25:00,45.6,37.8,30.12,SE,127,3.0,26.0,74,0.01,,---,0.00,0.00,VWS V14.01,2013-02-25 08:25:00,
2013-02-25 00:30:00,45.6,37.8,30.12,South,171,6.0,17.0,74,0.01,,---,0.00,0.00,VWS V14.01,2013-02-25 08:30:00,
2013-02-25 00:35:00,45.6,37.8,30.12,SSW,195,11.0,17.0,74,0.01,,---,0.00,0.00,VWS V14.01,2013-02-25 08:35:00,
2013-02-25 00:40:00,45.5,37.7,30.12,South,181,6.0,12.0,74,0.01,,---,0.00,0.00,VWS V14.01,2013-02-25 08:40:00,
2013-02-25 00:45:00,45.3,38.5,30.11,South,191,5.0,18.0,77,0.01,,---,0.00,0.00,VWS V14.01,2013-02-25 08:45:00,
2013-02-25 00:50:00,44.8,39.0,30.11,South,173,9.0,19.0,80,0.00,,---,0.00,0.00,VWS V14.01,2013-02-25 08:50:00,
2013-02-25 00:55:00,44.5,39.4,30.11,SW,214,14.0,19.0,82,0.01,,---,0.01,0.00,VWS V14.01,2013-02-25 08:55:00,
2013-02-25 01:00:00,44.4,39.3,30.10,South,169,9.0,14.0,82,0.01,,---,0.01,0.00,VWS V14.01,2013-02-25 09:00:00,
2013-02-25 01:05:00,44.3,39.2,30.10,South,170,7.0,24.0,82,0.01,,---,0.01,0.00,VWS V14.01,2013-02-25 09:05:00,
2013-02-25 01:10:00,44.3,39.5,30.10,SSE,157,7.0,12.0,83,0.01,,---,0.01,0.00,VWS V14.01,2013-02-25 09:10:00,
2013-02-25 01:15:00,44.2,39.4,30.10,South,177,8.0,18.0,83,0.01,,---,0.01,0.00,VWS V14.01,2013-02-25 09:15:00,
2013-02-25 01:20:00,44.2,39.4,30.09,South,180,11.0,16.0,83,0.01,,---,0.01,0.00,VWS V14.01,2013-02-25 09:20:00,
2013-02-25 01:25:00,44.2,39.4,30.09,South,178,9.0,16.0,83,0.01,,---,0.01,0.00,VWS V14.01,2013-02-25 09:25:00,
2013-02-25 01:30:00,44.3,39.5,30.09,South,180,12.0,15.0,83,0.01,,---,0.01,0.00,VWS V14.01,2013-02-25 09:30:00,
2013-02-25 01:35:00,44.4,39.6,30.09,SSW,192,9.0,18.0,83,0.01,,---,0.01,0.00,VWS V14.01,2013-02-25 09:35:00,
2013-02-25 01:40:00,44.3,39.5,30.10,SSW,207,10.0,23.0,83,0.01,,---,0.01,0.00,VWS V14.01,2013-02-25 09:40:00,
2013-02-25 01:45:00,44.0,39.5,30.09,South,190,12.0,23.0,84,0.02,,---,0.02,0.00,VWS V14.01,2013-02-25 09:45:00,
2013-02-25 01:50:00,43.8,39.9,30.10,South,170,10.0,11.0,86,0.03,,---,0.03,0.00,VWS V14.01,2013-02-25 09:50:00,
2013-02-25 01:55:00,43.5,39.9,30.10,SE,140,6.0,14.0,87,0.03,,---,0.03,0.00,VWS V14.01,2013-02-25 09:55:00,
2013-02-25 02:00:00,43.3,40.0,30.10,SSW,202,10.0,13.0,88,0.03,,---,0.04,0.00,VWS V14.01,2013-02-25 10:00:00,
2013-02-25 02:05:00,43.0,39.7,30.10,South,173,8.0,15.0,88,0.04,,---,0.05,0.00,VWS V14.01,2013-02-25 10:05:00,
2013-02-25 02:10:00,42.8,39.8,30.11,South,188,2.0,10.0,89,0.05,,---,0.06,0.00,VWS V14.01,2013-02-25 10:10:00,
2013-02-25 02:15:00,42.6,39.9,30.11,South,169,9.0,14.0,90,0.06,,---,0.07,0.00,VWS V14.01,2013-02-25 10:15:00,
2013-02-25 02:20:00,42.6,40.2,30.11,South,173,3.0,13.0,91,0.06,,---,0.07,0.00,VWS V14.01,2013-02-25 10:20:00,
2013-02-25 02:25:00,42.5,40.3,30.12,WSW,238,13.0,19.0,92,0.06,,---,0.07,0.00,VWS V14.01,2013-02-25 10:25:00,
2013-02-25 02:30:00,42.6,40.4,30.12,SSW,197,7.0,17.0,92,0.07,,---,0.08,0.00,VWS V14.01,2013-02-25 10:30:00,
2013-02-25 02:35:00,42.6,40.4,30.12,ESE,109,5.0,22.0,92,0.07,,---,0.08,0.00,VWS V14.01,2013-02-25 10:35:00,
2013-02-25 02:40:00,42.6,40.4,30.12,SSW,212,3.0,16.0,92,0.07,,---,0.08,0.00,VWS V14.01,2013-02-25 10:40:00,
2013-02-25 02:45:00,42.5,40.6,30.13,SW,232,2.0,16.0,93,0.07,,---,0.08,0.00,VWS V14.01,2013-02-25 10:45:00,
2013-02-25 02:50:00,42.6,40.7,30.14,WSW,247,0.0,11.0,93,0.06,,---,0.08,0.00,VWS V14.01,2013-02-25 10:50:00,
2013-02-25 02:54:00,42.6,40.7,30.14,WSW,258,1.0,11.0,93,0.06,,---,0.08,0.00,VWS V14.01,2013-02-25 10:54:00,
2013-02-25 02:59:00,42.5,40.6,30.14,South,181,4.0,9.0,93,0.04,,---,0.08,0.00,VWS V14.01,2013-02-25 10:59:00,
2013-02-25 03:00:00,42.6,40.7,30.14,WSW,244,1.0,11.0,93,0.06,,---,0.08,0.00,VWS V14.01,2013-02-25 11:00:00,
2013-02-25 03:04:00,42.5,40.6,30.14,SSW,209,0.0,11.0,93,0.04,,---,0.08,0.00,VWS V14.01,2013-02-25 11:04:00,
2013-02-25 03:09:00,42.4,40.8,30.15,SSW,198,9.0,9.0,94,0.02,,---,0.08,0.00,VWS V14.01,2013-02-25 11:09:00,
2013-02-25 03:10:00,42.5,40.6,30.14,South,190,3.0,11.0,93,0.04,,---,0.08,0.00,VWS V14.01,2013-02-25 11:10:00,
2013-02-25 03:14:00,42.3,40.7,30.15,SW,225,6.0,9.0,94,0.02,,---,0.08,0.00,VWS V14.01,2013-02-25 11:14:00,
2013-02-25 03:19:00,42.3,40.7,30.15,South,189,3.0,5.0,94,0.01,,---,0.08,0.00,VWS V14.01,2013-02-25 11:19:00,
2013-02-25 03:20:00,42.3,40.7,30.15,SSW,208,5.0,9.0,94,0.02,,---,0.08,0.00,VWS V14.01,2013-02-25 11:20:00,
2013-02-25 03:24:00,42.3,41.0,30.15,South,174,1.0,6.0,95,0.01,,---,0.08,0.00,VWS V14.01,2013-02-25 11:24:00,
2013-02-25 03:29:00,42.1,40.5,30.15,South,172,3.0,5.0,94,0.01,,---,0.08,0.00,VWS V14.01,2013-02-25 11:29:00,
2013-02-25 03:30:00,42.3,40.7,30.15,SSE,159,2.0,6.0,94,0.01,,---,0.08,0.00,VWS V14.01,2013-02-25 11:30:00,
2013-02-25 03:34:00,41.9,40.3,30.15,South,178,4.0,6.0,94,0.01,,---,0.08,0.00,VWS V14.01,2013-02-25 11:34:00,
2013-02-25 03:39:00,41.9,40.6,30.16,South,187,3.0,7.0,95,0.00,,---,0.08,0.00,VWS V14.01,2013-02-25 11:39:00,
2013-02-25 03:40:00,41.9,40.3,30.16,South,190,4.0,6.0,94,0.01,,---,0.08,0.00,VWS V14.01,2013-02-25 11:40:00,
2013-02-25 03:44:00,41.9,40.6,30.17,South,187,3.0,7.0,95,0.00,,---,0.08,0.00,VWS V14.01,2013-02-25 11:44:00,
2013-02-25 03:49:00,41.9,40.6,30.17,SSW,203,5.0,8.0,95,0.00,,---,0.08,0.00,VWS V14.01,2013-02-25 11:49:00,
2013-02-25 03:50:00,41.5,39.6,30.20,SSW,208,2.0,7.0,93,0.01,,---,0.09,0.00,VWS V14.01,2013-02-25 11:50:00,
2013-02-25 03:54:00,41.9,40.6,30.18,SSW,196,4.0,8.0,95,0.00,,---,0.08,0.00,VWS V14.01,2013-02-25 11:54:00,
2013-02-25 03:59:00,41.9,40.6,30.18,SSW,192,6.0,6.0,95,0.00,,---,0.08,0.00,VWS V14.01,2013-02-25 11:59:00,
2013-02-25 04:00:00,41.9,40.6,30.18,SW,224,3.0,8.0,95,0.00,,---,0.08,0.00,VWS V14.01,2013-02-25 12:00:00,
2013-02-25 04:04:00,41.7,40.4,30.19,SSW,209,1.0,6.0,95,0.00,,---,0.08,0.00,VWS V14.01,2013-02-25 12:04:00,
2013-02-25 04:09:00,41.7,40.1,30.19,WSW,237,5.0,6.0,94,0.00,,---,0.08,0.00,VWS V14.01,2013-02-25 12:09:00,
2013-02-25 04:10:00,41.7,40.4,30.19,SW,220,2.0,10.0,95,0.00,,---,0.08,0.00,VWS V14.01,2013-02-25 12:10:00,
2013-02-25 04:14:00,41.8,40.2,30.19,WSW,245,0.0,6.0,94,0.00,,---,0.08,0.00,VWS V14.01,2013-02-25 12:14:00,
2013-02-25 04:19:00,41.9,40.0,30.19,WSW,246,6.0,6.0,93,0.01,,---,0.09,0.00,VWS V14.01,2013-02-25 12:19:00,
2013-02-25 04:20:00,41.8,40.2,30.19,WSW,252,2.0,6.0,94,0.00,,---,0.08,0.00,VWS V14.01,2013-02-25 12:20:00,
2013-02-25 04:24:00,41.9,40.0,30.19,SW,228,1.0,6.0,93,0.01,,---,0.09,0.00,VWS V14.01,2013-02-25 12:24:00,
2013-02-25 04:29:00,41.9,40.0,30.20,SW,228,0.0,5.0,93,0.01,,---,0.09,0.00,VWS V14.01,2013-02-25 12:29:00,
2013-02-25 04:30:00,41.9,40.0,30.20,SW,228,5.0,6.0,93,0.01,,---,0.09,0.00,VWS V14.01,2013-02-25 12:30:00,
2013-02-25 04:34:00,41.8,39.9,30.20,SW,228,2.0,5.0,93,0.01,,---,0.09,0.00,VWS V14.01,2013-02-25 12:34:00,
2013-02-25 04:39:00,41.8,39.9,30.20,SSW,204,3.0,7.0,93,0.01,,---,0.09,0.00,VWS V14.01,2013-02-25 12:39:00,
2013-02-25 04:40:00,41.8,39.9,30.20,SSW,192,5.0,6.0,93,0.01,,---,0.09,0.00,VWS V14.01,2013-02-25 12:40:00,
2013-02-25 04:45:00,41.6,39.5,30.21,SSW,211,1.0,7.0,92,0.01,,---,0.09,0.00,VWS V14.01,2013-02-25 12:45:00,
2013-02-25 04:50:00,41.4,39.5,30.20,SSW,208,3.0,3.0,93,0.01,,---,0.09,0.00,VWS V14.01,2013-02-25 12:50:00,
2013-02-25 04:55:00,41.2,39.3,30.20,SSW,208,2.0,4.0,93,0.01,,---,0.09,0.00,VWS V14.01,2013-02-25 12:55:00,
2013-02-25 05:00:00,41.0,39.1,30.20,SSW,208,2.0,3.0,93,0.01,,---,0.09,0.00,VWS V14.01,2013-02-25 13:00:00,
2013-02-25 05:05:00,40.7,38.8,30.21,SSW,208,1.0,5.0,93,0.01,,---,0.09,0.00,VWS V14.01,2013-02-25 13:05:00,
2013-02-25 05:10:00,40.5,38.6,30.21,SSW,208,2.0,4.0,93,0.01,,---,0.09,0.00,VWS V14.01,2013-02-25 13:10:00,
2013-02-25 05:15:00,40.4,38.5,30.21,SSW,207,1.0,4.0,93,0.01,,---,0.09,0.00,VWS V14.01,2013-02-25 13:15:00,
2013-02-25 05:20:00,40.3,38.4,30.21,SSW,207,1.0,4.0,93,0.01,,---,0.09,0.00,VWS V14.01,2013-02-25 13:20:00,
2013-02-25 05:25:00,40.4,38.8,30.22,SSW,198,3.0,5.0,94,0.01,,---,0.09,0.00,VWS V14.01,2013-02-25 13:25:00,
2013-02-25 05:30:00,40.3,38.7,30.22,SSW,197,0.0,5.0,94,0.00,,---,0.09,0.00,VWS V14.01,2013-02-25 13:30:00,
2013-02-25 05:35:00,40.4,38.8,30.22,SW,225,2.0,6.0,94,0.00,,---,0.09,0.00,VWS V14.01,2013-02-25 13:35:00,
2013-02-25 05:40:00,40.5,38.9,30.22,South,190,0.0,5.0,94,0.00,,---,0.09,0.00,VWS V14.01,2013-02-25 13:40:00,
2013-02-25 05:45:00,40.5,38.9,30.22,South,190,1.0,5.0,94,0.00,,---,0.09,0.00,VWS V14.01,2013-02-25 13:45:00,
2013-02-25 05:50:00,40.5,38.9,30.22,South,190,2.0,4.0,94,0.00,,---,0.09,0.00,VWS V14.01,2013-02-25 13:50:00,
2013-02-25 05:56:00,40.4,38.8,30.22,South,178,3.0,5.0,94,0.00,,---,0.09,0.00,VWS V14.01,2013-02-25 13:56:00,
2013-02-25 06:00:00,40.4,38.8,30.23,South,189,3.0,7.0,94,0.00,,---,0.09,0.00,VWS V14.01,2013-02-25 14:00:00,
2013-02-25 06:01:00,40.5,38.9,30.23,SSW,204,5.0,7.0,94,0.00,,---,0.09,0.00,VWS V14.01,2013-02-25 14:01:00,
2013-02-25 06:06:00,40.7,38.8,30.24,SSW,207,0.0,9.0,93,0.00,,---,0.09,0.00,VWS V14.01,2013-02-25 14:06:00,
2013-02-25 06:10:00,40.7,38.8,30.23,WSW,245,0.0,9.0,93,0.00,,---,0.09,0.00,VWS V14.01,2013-02-25 14:10:00,
2013-02-25 06:11:00,40.7,38.8,30.23,SW,225,0.0,4.0,93,0.00,,---,0.09,0.00,VWS V14.01,2013-02-25 14:11:00,
2013-02-25 06:16:00,40.7,38.8,30.24,SW,225,0.0,4.0,93,0.00,,---,0.09,0.00,VWS V14.01,2013-02-25 14:16:00,
2013-02-25 06:20:00,40.7,38.8,30.24,SW,233,3.0,4.0,93,0.00,,---,0.09,0.00,VWS V14.01,2013-02-25 14:20:00,
2013-02-25 06:21:00,40.7,38.8,30.23,WSW,242,0.0,4.0,93,0.00,,---,0.09,0.00,VWS V14.01,2013-02-25 14:21:00,
2013-02-25 06:26:00,40.7,38.6,30.24,WSW,237,0.0,7.0,92,0.00,,---,0.09,0.00,VWS V14.01,2013-02-25 14:26:00,
2013-02-25 06:30:00,40.7,38.6,30.24,SW,228,0.0,7.0,92,0.00,,---,0.09,0.00,VWS V14.01,2013-02-25 14:30:00,
2013-02-25 06:31:00,40.7,38.6,30.24,SW,228,0.0,3.0,92,0.00,,---,0.09,0.00,VWS V14.01,2013-02-25 14:31:00,
2013-02-25 06:36:00,40.6,38.5,30.24,SW,228,2.0,3.0,92,0.00,,---,0.09,0.00,VWS V14.01,2013-02-25 14:36:00,
2013-02-25 06:40:00,40.6,38.5,30.24,South,191,2.0,5.0,92,0.00,,---,0.09,0.00,VWS V14.01,2013-02-25 14:40:00,
2013-02-25 06:41:00,40.6,38.5,30.24,SW,216,2.0,10.0,92,0.00,,---,0.09,0.00,VWS V14.01,2013-02-25 14:41:00,
2013-02-25 06:46:00,40.7,38.6,30.24,South,191,1.0,10.0,92,0.00,,---,0.09,0.00,VWS V14.01,2013-02-25 14:46:00,
2013-02-25 06:50:00,40.6,38.5,30.24,South,191,1.0,10.0,92,0.00,,---,0.09,0.00,VWS V14.01,2013-02-25 14:50:00,
2013-02-25 06:51:00,40.6,38.5,30.25,South,184,2.0,5.0,92,0.00,,---,0.09,0.00,VWS V14.01,2013-02-25 14:51:00,
2013-02-25 06:56:00,40.6,38.5,30.25,South,187,0.0,5.0,92,0.00,,---,0.09,0.00,VWS V14.01,2013-02-25 14:56:00,
2013-02-25 07:00:00,40.6,38.5,30.25,SSW,198,4.0,5.0,92,0.00,,---,0.09,0.00,VWS V14.01,2013-02-25 15:00:00,
2013-02-25 07:01:00,40.6,38.5,30.25,South,188,0.0,4.0,92,0.00,,---,0.09,0.00,VWS V14.01,2013-02-25 15:01:00,
2013-02-25 07:06:00,40.5,38.4,30.25,South,188,1.0,4.0,92,0.00,,---,0.09,0.00,VWS V14.01,2013-02-25 15:06:00,
2013-02-25 07:10:00,40.5,38.6,30.25,South,188,0.0,4.0,93,0.00,,---,0.09,0.00,VWS V14.01,2013-02-25 15:10:00,
2013-02-25 07:11:00,40.5,38.6,30.25,SW,215,5.0,12.0,93,0.01,,---,0.10,0.00,VWS V14.01,2013-02-25 15:11:00,
2013-02-25 07:16:00,40.7,38.8,30.25,South,189,2.0,12.0,93,0.01,,---,0.10,0.00,VWS V14.01,2013-02-25 15:16:00,
2013-02-25 07:20:00,40.7,38.8,30.25,SSE,153,4.0,12.0,93,0.01,,---,0.10,0.00,VWS V14.01,2013-02-25 15:20:00,
2013-02-25 07:21:00,40.7,38.6,30.25,South,183,4.0,9.0,92,0.01,,---,0.10,0.00,VWS V14.01,2013-02-25 15:21:00,
2013-02-25 07:26:00,40.7,38.6,30.26,SW,215,4.0,9.0,92,0.02,,---,0.11,0.00,VWS V14.01,2013-02-25 15:26:00,
2013-02-25 07:30:00,40.7,38.6,30.25,SSW,209,3.0,9.0,92,0.02,,---,0.11,0.00,VWS V14.01,2013-02-25 15:30:00,
2013-02-25 07:31:00,40.6,38.5,30.25,SSW,209,1.0,3.0,92,0.03,,---,0.12,9.00,VWS V14.01,2013-02-25 15:31:00,
2013-02-25 07:36:00,40.5,38.6,30.25,South,184,0.0,6.0,93,0.04,,---,0.13,11.00,VWS V14.01,2013-02-25 15:36:00,
2013-02-25 07:40:00,40.5,38.6,30.25,South,184,0.0,6.0,93,0.04,,---,0.13,11.00,VWS V14.01,2013-02-25 15:40:00,
2013-02-25 07:41:00,40.4,38.5,30.26,South,169,2.0,5.0,93,0.04,,---,0.13,9.00,VWS V14.01,2013-02-25 15:41:00,
2013-02-25 07:46:00,40.4,38.8,30.26,South,184,4.0,5.0,94,0.04,,---,0.13,19.00,VWS V14.01,2013-02-25 15:46:00,
2013-02-25 07:50:00,40.4,38.8,30.26,SSW,196,2.0,5.0,94,0.04,,---,0.13,21.00,VWS V14.01,2013-02-25 15:50:00,
2013-02-25 07:51:00,40.4,38.8,30.26,South,189,6.0,6.0,94,0.04,,---,0.13,32.00,VWS V14.01,2013-02-25 15:51:00,
2013-02-25 07:56:00,40.4,38.8,30.26,SSW,194,2.0,7.0,94,0.04,,---,0.13,81.00,VWS V14.01,2013-02-25 15:56:00,
2013-02-25 08:00:00,40.4,38.8,30.26,SSW,205,3.0,7.0,94,0.04,,---,0.13,83.00,VWS V14.01,2013-02-25 16:00:00,
2013-02-25 08:01:00,40.5,39.2,30.26,SSW,205,4.0,6.0,95,0.04,,---,0.13,128.00,VWS V14.01,2013-02-25 16:01:00,
2013-02-25 08:06:00,40.9,39.3,30.26,SW,225,1.0,13.0,94,0.04,,---,0.13,183.00,VWS V14.01,2013-02-25 16:06:00,
2013-02-25 08:10:00,41.0,39.4,30.26,SW,223,5.0,14.0,94,0.04,,---,0.13,86.00,VWS V14.01,2013-02-25 16:10:00,
2013-02-25 08:11:00,41.2,39.6,30.27,WSW,243,3.0,14.0,94,0.04,,---,0.13,155.00,VWS V14.01,2013-02-25 16:11:00,
2013-02-25 08:16:00,41.4,39.5,30.27,SW,220,5.0,14.0,93,0.04,,---,0.13,127.00,VWS V14.01,2013-02-25 16:16:00,
2013-02-25 08:20:00,41.4,39.5,30.27,South,187,3.0,14.0,93,0.04,,---,0.13,135.00,VWS V14.01,2013-02-25 16:20:00,
2013-02-25 08:21:00,41.5,39.3,30.27,WSW,242,7.0,10.0,92,0.03,,---,0.13,109.00,VWS V14.01,2013-02-25 16:21:00,
2013-02-25 08:26:00,41.5,39.3,30.27,SW,219,3.0,10.0,92,0.03,,---,0.13,322.00,VWS V14.01,2013-02-25 16:26:00,
2013-02-25 08:30:00,41.6,39.5,30.27,West,259,5.0,10.0,92,0.03,,---,0.13,172.00,VWS V14.01,2013-02-25 16:30:00,
2013-02-25 08:31:00,41.7,39.3,30.28,SSW,206,6.0,10.0,91,0.02,,---,0.13,90.00,VWS V14.01,2013-02-25 16:31:00,
2013-02-25 08:36:00,41.7,39.3,30.28,South,186,11.0,11.0,91,0.02,,---,0.13,84.00,VWS V14.01,2013-02-25 16:36:00,
2013-02-25 08:40:00,41.6,39.2,30.28,South,184,6.0,11.0,91,0.02,,---,0.13,98.00,VWS V14.01,2013-02-25 16:40:00,
2013-02-25 08:41:00,41.6,39.2,30.28,South,169,5.0,11.0,91,0.00,,---,0.13,153.00,VWS V14.01,2013-02-25 16:41:00,
2013-02-25 08:46:00,41.6,38.9,30.28,South,173,6.0,12.0,90,0.00,,---,0.13,116.00,VWS V14.01,2013-02-25 16:46:00,
2013-02-25 08:50:00,41.6,38.9,30.28,South,176,7.0,12.0,90,0.00,,---,0.13,125.00,VWS V14.01,2013-02-25 16:50:00,
2013-02-25 08:51:00,41.8,39.4,30.28,South,179,3.0,11.0,91,0.00,,---,0.13,156.00,VWS V14.01,2013-02-25 16:51:00,
2013-02-25 08:56:00,42.0,39.6,30.28,SW,219,3.0,11.0,91,0.00,,---,0.13,88.00,VWS V14.01,2013-02-25 16:56:00,
2013-02-25 09:00:00,42.0,39.6,30.28,South,180,5.0,11.0,91,0.00,,---,0.13,86.00,VWS V14.01,2013-02-25 17:00:00,
2013-02-25 09:01:00,41.9,39.2,30.29,SSW,207,6.0,10.0,90,0.00,,---,0.13,58.00,VWS V14.01,2013-02-25 17:01:00,
2013-02-25 09:06:00,41.6,39.2,30.29,WSW,244,3.0,11.0,91,0.01,,---,0.14,69.00,VWS V14.01,2013-02-25 17:06:00,
2013-02-25 09:10:00,41.5,39.1,30.29,SW,220,5.0,11.0,91,0.01,,---,0.14,63.00,VWS V14.01,2013-02-25 17:10:00,
2013-02-25 09:11:00,41.3,38.9,30.29,SW,234,0.0,10.0,91,0.01,,---,0.14,102.00,VWS V14.01,2013-02-25 17:11:00,
2013-02-25 09:16:00,41.1,38.7,30.29,SSW,213,4.0,10.0,91,0.02,,---,0.15,93.00,VWS V14.01,2013-02-25 17:16:00,
2013-02-25 09:20:00,41.0,38.9,30.29,SW,216,3.0,10.0,92,0.02,,---,0.15,104.00,VWS V14.01,2013-02-25 17:20:00,
2013-02-25 09:21:00,41.0,38.9,30.29,WSW,255,6.0,10.0,92,0.02,,---,0.15,156.00,VWS V14.01,2013-02-25 17:21:00,
2013-02-25 09:26:00,41.2,39.1,30.29,WSW,251,4.0,10.0,92,0.02,,---,0.15,144.00,VWS V14.01,2013-02-25 17:26:00,
2013-02-25 09:30:00,41.2,39.1,30.30,SSW,200,3.0,10.0,92,0.02,,---,0.15,141.00,VWS V14.01,2013-02-25 17:30:00,
2013-02-25 09:31:00,41.2,39.1,30.29,SSW,195,3.0,6.0,92,0.02,,---,0.15,86.00,VWS V14.01,2013-02-25 17:31:00,
2013-02-25 09:36:00,41.3,39.2,30.29,South,190,4.0,6.0,92,0.02,,---,0.15,114.00,VWS V14.01,2013-02-25 17:36:00,
2013-02-25 09:40:00,41.4,39.3,30.29,SSW,205,5.0,6.0,92,0.02,,---,0.15,109.00,VWS V14.01,2013-02-25 17:40:00,
2013-02-25 09:41:00,41.5,39.3,30.30,SSW,196,3.0,9.0,92,0.02,,---,0.15,146.00,VWS V14.01,2013-02-25 17:41:00,
2013-02-25 09:46:00,41.7,39.3,30.30,SSW,195,4.0,12.0,91,0.02,,---,0.15,135.00,VWS V14.01,2013-02-25 17:46:00,
2013-02-25 09:50:00,41.8,39.4,30.30,South,191,3.0,12.0,91,0.02,,---,0.15,130.00,VWS V14.01,2013-02-25 17:50:00,
2013-02-25 09:51:00,41.9,39.5,30.30,SSW,209,2.0,10.0,91,0.02,,---,0.15,142.00,VWS V14.01,2013-02-25 17:51:00,
2013-02-25 09:56:00,42.1,39.7,30.30,SSW,192,6.0,10.0,91,0.02,,---,0.15,116.00,VWS V14.01,2013-02-25 17:56:00,
2013-02-25 10:00:00,42.1,39.7,30.30,South,188,6.0,13.0,91,0.02,,---,0.15,118.00,VWS V14.01,2013-02-25 18:00:00,
2013-02-25 10:01:00,42.2,39.5,30.30,SSW,202,6.0,9.0,90,0.02,,---,0.15,148.00,VWS V14.01,2013-02-25 18:01:00,
2013-02-25 10:06:00,42.3,39.6,30.30,SSW,193,2.0,13.0,90,0.02,,---,0.15,202.00,VWS V14.01,2013-02-25 18:06:00,
2013-02-25 10:10:00,42.3,39.6,30.30,SSW,196,7.0,13.0,90,0.02,,---,0.15,197.00,VWS V14.01,2013-02-25 18:10:00,
2013-02-25 10:11:00,42.5,39.8,30.30,SW,225,15.0,16.0,90,0.01,,---,0.15,220.00,VWS V14.01,2013-02-25 18:11:00,
2013-02-25 10:16:00,42.7,39.7,30.30,SSW,194,6.0,16.0,89,0.01,,---,0.15,281.00,VWS V14.01,2013-02-25 18:16:00,
2013-02-25 10:20:00,42.7,39.7,30.30,SW,221,5.0,16.0,89,0.01,,---,0.15,281.00,VWS V14.01,2013-02-25 18:20:00,
2013-02-25 10:21:00,43.0,40.3,30.30,SSW,205,4.0,12.0,90,0.00,,---,0.15,364.00,VWS V14.01,2013-02-25 18:21:00,
2013-02-25 10:26:00,43.6,40.9,30.30,SW,221,9.0,12.0,90,0.00,,---,0.15,367.00,VWS V14.01,2013-02-25 18:26:00,
2013-02-25 10:30:00,43.6,40.9,30.30,SSW,213,12.0,15.0,90,0.00,,---,0.15,578.00,VWS V14.01,2013-02-25 18:30:00,
2013-02-25 10:31:00,43.7,41.0,30.30,SW,219,2.0,12.0,90,0.00,,---,0.15,327.00,VWS V14.01,2013-02-25 18:31:00,
2013-02-25 10:36:00,44.0,41.0,30.30,South,184,9.0,12.0,89,0.00,,---,0.15,369.00,VWS V14.01,2013-02-25 18:36:00,
2013-02-25 10:40:00,44.0,41.0,30.30,SSW,194,5.0,12.0,89,0.00,,---,0.15,406.00,VWS V14.01,2013-02-25 18:40:00,
2013-02-25 10:41:00,43.9,40.9,30.30,SSW,209,5.0,14.0,89,0.00,,---,0.15,352.00,VWS V14.01,2013-02-25 18:41:00,
2013-02-25 10:46:00,44.0,41.0,30.30,SW,217,5.0,14.0,89,0.00,,---,0.15,285.00,VWS V14.01,2013-02-25 18:46:00,
2013-02-25 10:50:00,44.0,41.0,30.30,SW,221,6.0,14.0,89,0.00,,---,0.15,316.00,VWS V14.01,2013-02-25 18:50:00,
2013-02-25 10:51:00,44.0,40.7,30.31,SSW,205,4.0,11.0,88,0.00,,---,0.15,315.00,VWS V14.01,2013-02-25 18:51:00,
2013-02-25 10:56:00,44.0,40.4,30.31,SW,216,10.0,12.0,87,0.00,,---,0.15,313.00,VWS V14.01,2013-02-25 18:56:00,
2013-02-25 11:00:00,44.0,39.8,30.31,SSW,206,4.0,12.0,85,0.00,,---,0.15,283.00,VWS V14.01,2013-02-25 19:00:00,
2013-02-25 11:01:00,43.9,39.7,30.31,WSW,238,3.0,12.0,85,0.00,,---,0.15,241.00,VWS V14.01,2013-02-25 19:01:00,
2013-02-25 11:06:00,43.8,39.3,30.32,SW,217,5.0,12.0,84,0.00,,---,0.15,325.00,VWS V14.01,2013-02-25 19:06:00,
2013-02-25 11:10:00,43.9,39.7,30.32,SW,233,2.0,12.0,85,0.00,,---,0.15,325.00,VWS V14.01,2013-02-25 19:10:00,
2013-02-25 11:11:00,44.0,39.5,30.32,SSW,198,10.0,13.0,84,0.00,,---,0.15,206.00,VWS V14.01,2013-02-25 19:11:00,
2013-02-25 11:16:00,43.5,39.0,30.32,SSW,203,6.0,18.0,84,0.00,,---,0.15,178.00,VWS V14.01,2013-02-25 19:16:00,
2013-02-25 11:20:00,43.4,38.9,30.32,SW,214,7.0,18.0,84,0.00,,---,0.15,169.00,VWS V14.01,2013-02-25 19:20:00,
2013-02-25 11:21:00,43.2,39.3,30.32,SW,225,1.0,13.0,86,0.00,,---,0.15,135.00,VWS V14.01,2013-02-25 19:21:00,
2013-02-25 11:26:00,42.9,39.6,30.32,SW,229,9.0,13.0,88,0.01,,---,0.16,111.00,VWS V14.01,2013-02-25 19:26:00,
2013-02-25 11:30:00,42.7,39.4,30.32,SW,222,3.0,13.0,88,0.02,,---,0.17,118.00,VWS V14.01,2013-02-25 19:30:00,
2013-02-25 11:31:00,42.0,38.7,30.32,West,275,9.0,12.0,88,0.03,,---,0.18,160.00,VWS V14.01,2013-02-25 19:31:00,
2013-02-25 11:36:00,41.6,38.3,30.32,West,262,5.0,14.0,88,0.04,,---,0.19,156.00,VWS V14.01,2013-02-25 19:36:00,
2013-02-25 11:40:00,41.6,38.6,30.32,WSW,240,4.0,14.0,89,0.05,,---,0.20,128.00,VWS V14.01,2013-02-25 19:40:00,
2013-02-25 11:41:00,41.4,38.7,30.32,South,182,4.0,5.0,90,0.05,,---,0.20,86.00,VWS V14.01,2013-02-25 19:41:00,
2013-02-25 11:46:00,41.5,39.1,30.31,SSE,165,1.0,7.0,91,0.06,,---,0.21,98.00,VWS V14.01,2013-02-25 19:46:00,
2013-02-25 11:50:00,41.4,39.0,30.30,South,188,5.0,7.0,91,0.06,,---,0.21,98.00,VWS V14.01,2013-02-25 19:50:00,
2013-02-25 11:51:00,41.9,40.0,30.31,SW,215,1.0,7.0,93,0.06,,---,0.21,642.00,VWS V14.01,2013-02-25 19:51:00,
2013-02-25 11:56:00,42.7,40.8,30.31,SSW,203,1.0,7.0,93,0.06,,---,0.21,642.00,VWS V14.01,2013-02-25 19:56:00,
2013-02-25 12:00:00,43.0,41.1,30.31,SW,215,0.0,7.0,93,0.06,,---,0.21,640.00,VWS V14.01,2013-02-25 20:00:00,
2013-02-25 12:01:00,43.8,41.6,30.31,SW,222,5.0,6.0,92,0.06,,---,0.21,650.00,VWS V14.01,2013-02-25 20:01:00,
2013-02-25 12:06:00,44.4,41.9,30.32,SSW,210,2.0,7.0,91,0.06,,---,0.21,132.00,VWS V14.01,2013-02-25 20:06:00,
2013-02-25 12:10:00,44.5,42.0,30.31,SSW,211,0.0,7.0,91,0.06,,---,0.21,127.00,VWS V14.01,2013-02-25 20:10:00,
2013-02-25 12:11:00,44.6,41.8,30.32,SSW,213,6.0,9.0,90,0.06,,---,0.21,190.00,VWS V14.01,2013-02-25 20:11:00,
2013-02-25 12:16:00,44.6,40.7,30.31,WSW,249,4.0,9.0,86,0.06,,---,0.21,123.00,VWS V14.01,2013-02-25 20:16:00,
2013-02-25 12:20:00,44.6,40.7,30.31,WSW,255,3.0,9.0,86,0.06,,---,0.21,109.00,VWS V14.01,2013-02-25 20:20:00,
2013-02-25 12:21:00,44.5,40.6,30.31,West,273,6.0,9.0,86,0.06,,---,0.21,35.00,VWS V14.01,2013-02-25 20:21:00,
2013-02-25 12:26:00,43.4,38.6,30.32,West,265,3.0,15.0,83,0.11,,---,0.26,60.00,VWS V14.01,2013-02-25 20:26:00,
2013-02-25 12:30:00,42.9,38.4,30.32,WSW,248,2.0,15.0,84,0.12,,---,0.27,116.00,VWS V14.01,2013-02-25 20:30:00,
2013-02-25 12:31:00,42.1,38.8,30.31,WSW,242,0.0,4.0,88,0.10,,---,0.27,696.00,VWS V14.01,2013-02-25 20:31:00,
2013-02-25 12:36:00,42.5,40.1,30.31,SW,220,2.0,11.0,91,0.11,,---,0.28,747.00,VWS V14.01,2013-02-25 20:36:00,
2013-02-25 12:40:00,42.7,40.5,30.30,SSW,213,4.0,11.0,92,0.12,,---,0.29,742.00,VWS V14.01,2013-02-25 20:40:00,
2013-02-25 12:41:00,43.7,41.8,30.30,South,176,3.0,6.0,93,0.09,,---,0.29,650.00,VWS V14.01,2013-02-25 20:41:00,
2013-02-25 12:46:00,44.6,41.8,30.30,West,281,6.0,13.0,90,0.10,,---,0.30,649.00,VWS V14.01,2013-02-25 20:46:00,
2013-02-25 12:50:00,44.8,42.3,30.30,WSW,251,1.0,13.0,91,0.10,,---,0.30,649.00,VWS V14.01,2013-02-25 20:50:00,
2013-02-25 12:51:00,45.3,42.0,30.30,SW,235,4.0,12.0,88,0.09,,---,0.30,649.00,VWS V14.01,2013-02-25 20:51:00,
2013-02-25 12:56:00,45.6,41.4,30.30,West,261,4.0,12.0,85,0.09,,---,0.30,174.00,VWS V14.01,2013-02-25 20:56:00,
2013-02-25 13:00:00,45.7,41.8,30.30,SW,234,1.0,12.0,86,0.09,,---,0.30,174.00,VWS V14.01,2013-02-25 21:00:00,
2013-02-25 13:01:00,46.3,40.8,30.30,West,280,5.0,14.0,81,0.09,,---,0.30,756.00,VWS V14.01,2013-02-25 21:01:00,
2013-02-25 13:06:00,46.4,39.9,30.30,WSW,250,5.0,14.0,78,0.09,,---,0.30,267.00,VWS V14.01,2013-02-25 21:06:00,
2013-02-25 13:10:00,46.4,39.6,30.30,West,265,9.0,14.0,77,0.09,,---,0.30,267.00,VWS V14.01,2013-02-25 21:10:00,
2013-02-25 13:11:00,46.0,38.9,30.31,West,259,4.0,19.0,76,0.09,,---,0.30,172.00,VWS V14.01,2013-02-25 21:11:00,
2013-02-25 13:16:00,45.3,39.5,30.31,SW,231,1.0,19.0,80,0.10,,---,0.31,193.00,VWS V14.01,2013-02-25 21:16:00,
2013-02-25 13:20:00,45.3,40.1,30.31,SSW,192,1.0,19.0,82,0.10,,---,0.31,267.00,VWS V14.01,2013-02-25 21:20:00,
2013-02-25 13:21:00,45.5,40.3,30.31,SW,236,10.0,12.0,82,0.10,,---,0.31,784.00,VWS V14.01,2013-02-25 21:21:00,
2013-02-25 13:26:00,45.9,40.4,30.31,WSW,244,7.0,13.0,81,0.10,,---,0.31,276.00,VWS V14.01,2013-02-25 21:26:00,
2013-02-25 13:30:00,45.9,40.1,30.31,WSW,255,8.0,13.0,80,0.10,,---,0.31,276.00,VWS V14.01,2013-02-25 21:30:00,
2013-02-25 13:31:00,45.8,39.7,30.31,SW,235,7.0,13.0,79,0.04,,---,0.31,243.00,VWS V14.01,2013-02-25 21:31:00,
2013-02-25 13:36:00,46.2,39.7,30.31,WSW,248,5.0,14.0,78,0.04,,---,0.31,636.00,VWS V14.01,2013-02-25 21:36:00,
2013-02-25 13:40:00,46.3,39.8,30.31,West,271,11.0,14.0,78,0.04,,---,0.31,633.00,VWS V14.01,2013-02-25 21:40:00,
2013-02-25 13:41:00,46.7,40.9,30.31,SW,232,3.0,12.0,80,0.02,,---,0.31,649.00,VWS V14.01,2013-02-25 21:41:00,
2013-02-25 13:46:00,47.3,40.8,30.31,WSW,252,10.0,14.0,78,0.02,,---,0.31,677.00,VWS V14.01,2013-02-25 21:46:00,
2013-02-25 13:50:00,47.3,39.8,30.31,WSW,251,2.0,14.0,75,0.02,,---,0.31,714.00,VWS V14.01,2013-02-25 21:50:00,
2013-02-25 13:51:00,47.4,39.5,30.31,WSW,242,17.0,17.0,74,0.01,,---,0.31,635.00,VWS V14.01,2013-02-25 21:51:00,
2013-02-25 13:56:00,47.3,38.4,30.31,WNW,287,6.0,17.0,71,0.01,,---,0.31,160.00,VWS V14.01,2013-02-25 21:56:00,
2013-02-25 14:00:00,47.2,38.7,30.31,West,269,5.0,17.0,72,0.01,,---,0.31,128.00,VWS V14.01,2013-02-25 22:00:00,
2013-02-25 14:01:00,46.2,39.4,30.33,WSW,248,9.0,17.0,77,0.01,,---,0.31,54.00,VWS V14.01,2013-02-25 22:01:00,
2013-02-25 14:06:00,43.2,37.5,30.33,WSW,251,4.0,17.0,80,0.05,,---,0.35,139.00,VWS V14.01,2013-02-25 22:06:00,
2013-02-25 14:10:00,42.8,37.4,30.32,SW,236,7.0,17.0,81,0.06,,---,0.36,148.00,VWS V14.01,2013-02-25 22:10:00,
2013-02-25 14:11:00,42.1,37.6,30.32,West,260,5.0,14.0,84,0.06,,---,0.36,127.00,VWS V14.01,2013-02-25 22:11:00,
2013-02-25 14:16:00,42.3,38.4,30.32,SW,234,2.0,14.0,86,0.06,,---,0.36,301.00,VWS V14.01,2013-02-25 22:16:00,
2013-02-25 14:20:00,42.5,38.3,30.32,WSW,243,6.0,14.0,85,0.06,,---,0.36,376.00,VWS V14.01,2013-02-25 22:20:00,
2013-02-25 14:21:00,43.3,38.2,30.31,WSW,258,11.0,15.0,82,0.05,,---,0.36,545.00,VWS V14.01,2013-02-25 22:21:00,
2013-02-25 14:26:00,44.3,38.5,30.31,West,275,15.0,15.0,80,0.06,,---,0.37,538.00,VWS V14.01,2013-02-25 22:26:00,
2013-02-25 14:30:00,44.5,38.4,30.31,West,268,7.0,15.0,79,0.06,,---,0.37,538.00,VWS V14.01,2013-02-25 22:30:00,
2013-02-25 14:31:00,45.3,39.2,30.31,WSW,244,6.0,11.0,79,0.06,,---,0.37,524.00,VWS V14.01,2013-02-25 22:31:00,
2013-02-25 14:36:00,45.9,37.8,30.31,SSW,205,8.0,14.0,73,0.06,,---,0.37,522.00,VWS V14.01,2013-02-25 22:36:00,
2013-02-25 14:40:00,46.1,38.6,30.31,WNW,285,3.0,14.0,75,0.06,,---,0.37,513.00,VWS V14.01,2013-02-25 22:40:00,
2013-02-25 14:41:00,46.5,38.0,30.31,WSW,256,5.0,13.0,72,0.06,,---,0.37,520.00,VWS V14.01,2013-02-25 22:41:00,
2013-02-25 14:46:00,46.9,37.6,30.31,SW,236,4.0,13.0,70,0.06,,---,0.37,513.00,VWS V14.01,2013-02-25 22:46:00,
2013-02-25 14:50:00,47.0,37.7,30.31,West,263,14.0,17.0,70,0.06,,---,0.37,499.00,VWS V14.01,2013-02-25 22:50:00,
2013-02-25 14:51:00,47.1,36.3,30.31,West,278,10.0,17.0,66,0.06,,---,0.37,497.00,VWS V14.01,2013-02-25 22:51:00,
2013-02-25 14:56:00,47.3,36.9,30.30,West,263,5.0,17.0,67,0.06,,---,0.37,450.00,VWS V14.01,2013-02-25 22:56:00,
2013-02-25 15:00:00,47.3,36.9,30.30,West,274,6.0,17.0,67,0.06,,---,0.37,457.00,VWS V14.01,2013-02-25 23:00:00,
2013-02-25 15:01:00,47.6,37.6,30.31,WSW,242,7.0,12.0,68,0.06,,---,0.37,466.00,VWS V14.01,2013-02-25 23:01:00,
2013-02-25 15:06:00,47.5,35.9,30.31,West,279,15.0,15.0,64,0.06,,---,0.37,125.00,VWS V14.01,2013-02-25 23:06:00,
2013-02-25 15:10:00,47.2,35.7,30.31,West,276,11.0,15.0,64,0.06,,---,0.37,127.00,VWS V14.01,2013-02-25 23:10:00,
2013-02-25 15:11:00,46.7,35.2,30.32,West,276,7.0,12.0,64,0.01,,---,0.37,123.00,VWS V14.01,2013-02-25 23:11:00,
2013-02-25 15:16:00,46.3,34.8,30.32,West,278,10.0,13.0,64,0.01,,---,0.37,120.00,VWS V14.01,2013-02-25 23:16:00,
2013-02-25 15:20:00,46.3,35.2,30.32,WNW,296,4.0,13.0,65,0.01,,---,0.37,130.00,VWS V14.01,2013-02-25 23:20:00,
2013-02-25 15:21:00,46.2,35.1,30.33,West,265,6.0,15.0,65,0.01,,---,0.37,144.00,VWS V14.01,2013-02-25 23:21:00,
2013-02-25 15:26:00,46.0,36.4,30.33,WSW,256,11.0,19.0,69,0.01,,---,0.37,181.00,VWS V14.01,2013-02-25 23:26:00,
2013-02-25 15:30:00,45.9,36.3,30.33,West,276,13.0,19.0,69,0.01,,---,0.37,172.00,VWS V14.01,2013-02-25 23:30:00,
2013-02-25 15:31:00,45.7,36.1,30.33,West,281,5.0,13.0,69,0.00,,---,0.37,156.00,VWS V14.01,2013-02-25 23:31:00,
2013-02-25 15:36:00,45.5,37.0,30.34,West,259,7.0,13.0,72,0.00,,---,0.37,137.00,VWS V14.01,2013-02-25 23:36:00,
2013-02-25 15:40:00,45.4,36.6,30.34,West,271,7.0,13.0,71,0.00,,---,0.37,156.00,VWS V14.01,2013-02-25 23:40:00,
2013-02-25 15:41:00,45.4,37.6,30.34,West,265,5.0,10.0,74,0.00,,---,0.37,207.00,VWS V14.01,2013-02-25 23:41:00,
2013-02-25 15:46:00,45.3,37.9,30.34,West,281,9.0,12.0,75,0.00,,---,0.37,183.00,VWS V14.01,2013-02-25 23:46:00,
2013-02-25 15:50:00,45.3,37.5,30.34,West,263,3.0,13.0,74,0.00,,---,0.37,158.00,VWS V14.01,2013-02-25 23:50:00,
2013-02-25 15:51:00,45.3,38.2,30.35,WSW,244,3.0,10.0,76,0.00,,---,0.37,118.00,VWS V14.01,2013-02-25 23:51:00,
2013-02-25 15:56:00,45.1,37.7,30.35,West,266,5.0,10.0,75,0.00,,---,0.37,72.00,VWS V14.01,2013-02-25 23:56:00,
2013-02-25 16:00:00,45.0,37.9,30.35,WNW,290,7.0,10.0,76,0.00,,---,0.37,74.00,VWS V14.01,2013-02-26 00:00:00,
2013-02-25 16:01:00,44.8,38.0,30.35,WSW,254,5.0,13.0,77,0.00,,---,0.37,121.00,VWS V14.01,2013-02-26 00:01:00,
2013-02-25 16:06:00,44.3,38.5,30.35,West,273,9.0,13.0,80,0.00,,---,0.37,223.00,VWS V14.01,2013-02-26 00:06:00,
2013-02-25 16:10:00,44.2,38.4,30.35,WSW,248,1.0,13.0,80,0.00,,---,0.37,227.00,VWS V14.01,2013-02-26 00:10:00,
2013-02-25 16:11:00,44.3,39.2,30.35,WNW,287,3.0,6.0,82,0.00,,---,0.37,239.00,VWS V14.01,2013-02-26 00:11:00,
2013-02-25 16:16:00,44.4,39.6,30.35,West,270,3.0,10.0,83,0.00,,---,0.37,253.00,VWS V14.01,2013-02-26 00:16:00,
2013-02-25 16:20:00,44.4,39.3,30.35,WNW,287,9.0,10.0,82,0.00,,---,0.37,301.00,VWS V14.01,2013-02-26 00:20:00,
2013-02-25 16:21:00,44.3,38.5,30.35,WNW,288,7.0,13.0,80,0.00,,---,0.37,69.00,VWS V14.01,2013-02-26 00:21:00,
2013-02-25 16:26:00,44.0,38.2,30.35,WSW,244,5.0,13.0,80,0.00,,---,0.37,42.00,VWS V14.01,2013-02-26 00:26:00,
2013-02-25 16:30:00,43.9,38.1,30.35,West,268,4.0,13.0,80,0.00,,---,0.37,39.00,VWS V14.01,2013-02-26 00:30:00,
2013-02-25 16:31:00,43.9,38.1,30.35,West,261,2.0,5.0,80,0.00,,---,0.37,40.00,VWS V14.01,2013-02-26 00:31:00,
2013-02-25 16:36:00,43.9,37.8,30.35,West,263,11.0,11.0,79,0.00,,---,0.37,62.00,VWS V14.01,2013-02-26 00:36:00,
2013-02-25 16:40:00,43.9,37.8,30.35,WSW,254,5.0,11.0,79,0.00,,---,0.37,65.00,VWS V14.01,2013-02-26 00:40:00,
2013-02-25 16:41:00,43.8,37.7,30.35,West,273,6.0,14.0,79,0.00,,---,0.37,83.00,VWS V14.01,2013-02-26 00:41:00,
2013-02-25 16:46:00,43.7,37.6,30.35,West,275,11.0,14.0,79,0.00,,---,0.37,70.00,VWS V14.01,2013-02-26 00:46:00,
2013-02-25 16:50:00,43.6,37.8,30.35,West,279,5.0,14.0,80,0.00,,---,0.37,65.00,VWS V14.01,2013-02-26 00:50:00,
2013-02-25 16:51:00,43.4,37.7,30.35,WNW,293,11.0,15.0,80,0.00,,---,0.37,63.00,VWS V14.01,2013-02-26 00:51:00,
2013-02-25 16:56:00,43.2,37.8,30.35,West,264,3.0,15.0,81,0.00,,---,0.37,58.00,VWS V14.01,2013-02-26 00:56:00,
2013-02-25 17:00:00,41.4,36.9,30.36,WSW,250,4.0,8.0,84,0.00,,---,0.37,0.00,VWS V14.01,2013-02-26 01:00:00,
2013-02-25 17:01:00,43.0,37.6,30.35,West,262,5.0,9.0,81,0.00,,---,0.37,54.00,VWS V14.01,2013-02-26 01:01:00,
2013-02-25 17:06:00,42.9,37.5,30.35,West,272,5.0,9.0,81,0.00,,---,0.37,93.00,VWS V14.01,2013-02-26 01:06:00,
2013-02-25 17:10:00,42.9,37.5,30.35,West,263,4.0,9.0,81,0.00,,---,0.37,90.00,VWS V14.01,2013-02-26 01:10:00,
2013-02-25 17:11:00,43.0,37.6,30.35,West,259,7.0,10.0,81,0.00,,---,0.37,83.00,VWS V14.01,2013-02-26 01:11:00,
2013-02-25 17:16:00,43.0,37.6,30.35,WSW,245,4.0,10.0,81,0.00,,---,0.37,63.00,VWS V14.01,2013-02-26 01:16:00,
2013-02-25 17:20:00,40.8,36.9,30.37,WSW,242,0.0,5.0,86,0.00,,---,0.37,0.00,VWS V14.01,2013-02-26 01:20:00,
2013-02-25 17:21:00,42.9,37.5,30.35,WSW,245,5.0,5.0,81,0.00,,---,0.37,42.00,VWS V14.01,2013-02-26 01:21:00,
2013-02-25 17:26:00,42.8,37.4,30.35,WNW,283,3.0,5.0,81,0.00,,---,0.37,32.00,VWS V14.01,2013-02-26 01:26:00,
2013-02-25 17:30:00,42.7,37.3,30.36,WNW,298,5.0,10.0,81,0.00,,---,0.37,25.00,VWS V14.01,2013-02-26 01:30:00,
2013-02-25 17:31:00,42.4,37.0,30.35,West,268,5.0,7.0,81,0.00,,---,0.37,19.00,VWS V14.01,2013-02-26 01:31:00,
2013-02-25 17:36:00,42.3,37.2,30.36,WSW,250,4.0,7.0,82,0.00,,---,0.37,14.00,VWS V14.01,2013-02-26 01:36:00,
2013-02-25 17:40:00,42.2,37.1,30.35,West,265,4.0,7.0,82,0.00,,---,0.37,14.00,VWS V14.01,2013-02-26 01:40:00,
2013-02-25 17:41:00,42.0,36.9,30.36,WNW,282,4.0,8.0,82,0.00,,---,0.37,11.00,VWS V14.01,2013-02-26 01:41:00,
2013-02-25 17:46:00,41.7,36.9,30.36,WSW,256,5.0,9.0,83,0.00,,---,0.37,5.00,VWS V14.01,2013-02-26 01:46:00,
2013-02-25 17:50:00,41.7,36.9,30.36,WSW,238,2.0,9.0,83,0.00,,---,0.37,5.00,VWS V14.01,2013-02-26 01:50:00,
2013-02-25 17:51:00,41.6,36.8,30.36,West,261,5.0,8.0,83,0.00,,---,0.37,0.00,VWS V14.01,2013-02-26 01:51:00,
2013-02-25 17:56:00,41.4,36.9,30.36,West,267,5.0,8.0,84,0.00,,---,0.37,0.00,VWS V14.01,2013-02-26 01:56:00,
2013-02-25 18:00:00,38.6,35.7,30.38,SW,220,0.0,3.0,89,0.00,,---,0.37,0.00,VWS V14.01,2013-02-26 02:00:00,
2013-02-25 18:01:00,41.3,37.1,30.36,West,263,3.0,7.0,85,0.00,,---,0.37,0.00,VWS V14.01,2013-02-26 02:01:00,
2013-02-25 18:06:00,41.1,36.9,30.36,WSW,246,3.0,7.0,85,0.00,,---,0.37,0.00,VWS V14.01,2013-02-26 02:06:00,
2013-02-25 18:10:00,38.2,35.8,30.38,SW,220,0.0,2.0,91,0.00,,---,0.37,0.00,VWS V14.01,2013-02-26 02:10:00,
2013-02-25 18:11:00,40.9,36.8,30.37,SW,233,2.0,5.0,85,0.00,,---,0.37,0.00,VWS V14.01,2013-02-26 02:11:00,
2013-02-25 18:16:00,40.8,36.7,30.37,WSW,242,2.0,5.0,85,0.00,,---,0.37,0.00,VWS V14.01,2013-02-26 02:16:00,
2013-02-25 18:20:00,40.8,36.9,30.37,WSW,242,0.0,5.0,86,0.00,,---,0.37,0.00,VWS V14.01,2013-02-26 02:20:00,
2013-02-25 18:21:00,40.7,36.8,30.37,WSW,242,0.0,4.0,86,0.00,,---,0.37,0.00,VWS V14.01,2013-02-26 02:21:00,
2013-02-25 18:26:00,40.5,36.7,30.37,WSW,242,2.0,4.0,86,0.00,,---,0.37,0.00,VWS V14.01,2013-02-26 02:26:00,
2013-02-25 18:30:00,38.4,36.6,30.39,SSE,151,2.0,2.0,93,0.00,,---,0.37,0.00,VWS V14.01,2013-02-26 02:30:00,
2013-02-25 18:31:00,40.3,36.8,30.37,SW,220,0.0,3.0,87,0.00,,---,0.37,0.00,VWS V14.01,2013-02-26 02:31:00,
2013-02-25 18:36:00,40.0,36.5,30.37,SW,220,0.0,3.0,87,0.00,,---,0.37,0.00,VWS V14.01,2013-02-26 02:36:00,
2013-02-25 18:40:00,38.5,36.7,30.39,SSE,151,2.0,3.0,93,0.00,,---,0.37,0.00,VWS V14.01,2013-02-26 02:40:00,
2013-02-25 18:41:00,39.7,36.2,30.37,SW,220,0.0,3.0,87,0.00,,---,0.37,0.00,VWS V14.01,2013-02-26 02:41:00,
2013-02-25 18:46:00,39.4,36.2,30.37,SW,220,0.0,3.0,88,0.00,,---,0.37,0.00,VWS V14.01,2013-02-26 02:46:00,
2013-02-25 18:50:00,38.3,36.5,30.39,SSE,151,0.0,2.0,93,0.00,,---,0.37,0.00,VWS V14.01,2013-02-26 02:50:00,
2013-02-25 18:51:00,39.0,36.0,30.37,SW,220,0.0,3.0,89,0.00,,---,0.37,0.00,VWS V14.01,2013-02-26 02:51:00,
2013-02-25 18:56:00,38.7,35.7,30.38,SW,220,0.0,3.0,89,0.00,,---,0.37,0.00,VWS V14.01,2013-02-26 02:56:00,
2013-02-25 19:00:00,38.6,35.7,30.38,SW,220,0.0,3.0,89,0.00,,---,0.37,0.00,VWS V14.01,2013-02-26 03:00:00,
2013-02-25 19:01:00,38.4,35.7,30.38,SW,220,0.0,2.0,90,0.00,,---,0.37,0.00,VWS V14.01,2013-02-26 03:01:00,
2013-02-25 19:06:00,38.2,35.5,30.38,SW,220,0.0,2.0,90,0.00,,---,0.37,0.00,VWS V14.01,2013-02-26 03:06:00,
2013-02-25 19:10:00,38.2,35.8,30.38,SW,220,0.0,2.0,91,0.00,,---,0.37,0.00,VWS V14.01,2013-02-26 03:10:00,
2013-02-25 19:11:00,38.2,35.8,30.39,SW,220,0.0,0.0,91,0.00,,---,0.37,0.00,VWS V14.01,2013-02-26 03:11:00,
2013-02-25 19:16:00,38.1,35.7,30.39,SW,220,1.0,1.0,91,0.00,,---,0.37,0.00,VWS V14.01,2013-02-26 03:16:00,
2013-02-25 19:20:00,38.1,36.3,30.39,SSE,151,1.0,3.0,93,0.00,,---,0.37,0.00,VWS V14.01,2013-02-26 03:20:00,
2013-02-25 19:21:00,38.2,36.1,30.39,SW,220,1.0,2.0,92,0.00,,---,0.37,0.00,VWS V14.01,2013-02-26 03:21:00,
2013-02-25 19:26:00,38.3,36.2,30.39,SW,220,0.0,2.0,92,0.00,,---,0.37,0.00,VWS V14.01,2013-02-26 03:26:00,
2013-02-25 19:30:00,37.6,35.8,30.39,SSE,151,0.0,3.0,93,0.00,,---,0.37,0.00,VWS V14.01,2013-02-26 03:30:00,
2013-02-25 19:31:00,38.5,36.7,30.39,SSE,151,0.0,3.0,93,0.00,,---,0.37,0.00,VWS V14.01,2013-02-26 03:31:00,
2013-02-25 19:36:00,38.5,36.7,30.39,SSE,151,2.0,3.0,93,0.00,,---,0.37,0.00,VWS V14.01,2013-02-26 03:36:00,
2013-02-25 19:40:00,37.5,35.9,30.39,SSE,151,0.0,2.0,94,0.00,,---,0.37,0.00,VWS V14.01,2013-02-26 03:40:00,
2013-02-25 19:41:00,38.5,36.7,30.38,SSE,151,0.0,2.0,93,0.00,,---,0.37,0.00,VWS V14.01,2013-02-26 03:41:00,
2013-02-25 19:46:00,38.3,36.5,30.39,SSE,151,0.0,2.0,93,0.00,,---,0.37,0.00,VWS V14.01,2013-02-26 03:46:00,
2013-02-25 19:50:00,38.3,36.5,30.39,SSE,151,0.0,2.0,93,0.00,,---,0.37,0.00,VWS V14.01,2013-02-26 03:50:00,
2013-02-25 19:51:00,38.3,36.5,30.39,SSE,151,0.0,3.0,93,0.00,,---,0.37,0.00,VWS V14.01,2013-02-26 03:51:00,
2013-02-25 19:56:00,38.4,36.6,30.39,SSE,151,0.0,3.0,93,0.00,,---,0.37,0.00,VWS V14.01,2013-02-26 03:56:00,
2013-02-25 20:00:00,36.8,35.2,30.40,SSE,151,0.0,3.0,94,0.00,,---,0.37,0.00,VWS V14.01,2013-02-26 04:00:00,
2013-02-25 20:01:00,38.4,36.6,30.39,SSE,151,0.0,2.0,93,0.00,,---,0.37,0.00,VWS V14.01,2013-02-26 04:01:00,
2013-02-25 20:06:00,38.3,36.5,30.39,SSE,151,0.0,2.0,93,0.00,,---,0.37,0.00,VWS V14.01,2013-02-26 04:06:00,
2013-02-25 20:10:00,36.8,35.2,30.41,SSE,151,0.0,1.0,94,0.00,,---,0.37,0.00,VWS V14.01,2013-02-26 04:10:00,
2013-02-25 20:11:00,38.3,36.5,30.39,SSE,151,1.0,2.0,93,0.00,,---,0.37,0.00,VWS V14.01,2013-02-26 04:11:00,
2013-02-25 20:16:00,38.1,36.3,30.39,SSE,151,0.0,3.0,93,0.00,,---,0.37,0.00,VWS V14.01,2013-02-26 04:16:00,
2013-02-25 20:20:00,36.6,35.0,30.42,SSE,151,0.0,3.0,94,0.00,,---,0.37,0.00,VWS V14.01,2013-02-26 04:20:00,
2013-02-25 20:21:00,37.9,36.1,30.39,SSE,151,1.0,2.0,93,0.00,,---,0.37,0.00,VWS V14.01,2013-02-26 04:21:00,
2013-02-25 20:26:00,37.7,35.9,30.39,SSE,151,0.0,3.0,93,0.00,,---,0.37,0.00,VWS V14.01,2013-02-26 04:26:00,
2013-02-25 20:30:00,37.6,36.0,30.39,SSE,151,0.0,1.0,94,0.00,,---,0.37,0.00,VWS V14.01,2013-02-26 04:30:00,
2013-02-25 20:35:00,37.5,35.9,30.39,SSE,151,1.0,2.0,94,0.00,,---,0.37,0.00,VWS V14.01,2013-02-26 04:35:00,
2013-02-25 20:40:00,37.4,35.8,30.39,SSE,151,0.0,2.0,94,0.00,,---,0.37,0.00,VWS V14.01,2013-02-26 04:40:00,
2013-02-25 20:45:00,37.1,35.5,30.40,SSE,151,0.0,2.0,94,0.00,,---,0.37,0.00,VWS V14.01,2013-02-26 04:45:00,
2013-02-25 20:50:00,37.0,35.4,30.40,SSE,151,0.0,1.0,94,0.00,,---,0.37,0.00,VWS V14.01,2013-02-26 04:50:00,
2013-02-25 20:55:00,36.8,35.2,30.40,SSE,151,0.0,3.0,94,0.00,,---,0.37,0.00,VWS V14.01,2013-02-26 04:55:00,
2013-02-25 21:00:00,36.8,35.2,30.40,SSE,151,0.0,1.0,94,0.00,,---,0.37,0.00,VWS V14.01,2013-02-26 05:00:00,
2013-02-25 21:05:00,36.7,35.1,30.41,SSE,151,0.0,1.0,94,0.00,,---,0.37,0.00,VWS V14.01,2013-02-26 05:05:00,
2013-02-25 21:10:00,36.7,35.1,30.41,SSE,151,1.0,2.0,94,0.00,,---,0.37,0.00,VWS V14.01,2013-02-26 05:10:00,
2013-02-25 21:15:00,36.6,35.0,30.42,SSE,151,0.0,3.0,94,0.00,,---,0.37,0.00,VWS V14.01,2013-02-26 05:15:00,
2013-02-25 21:20:00,36.5,34.9,30.41,SSE,151,0.0,0.0,94,0.00,,---,0.37,0.00,VWS V14.01,2013-02-26 05:20:00,
2013-02-25 21:25:00,36.4,34.8,30.41,SSE,151,0.0,1.0,94,0.00,,---,0.37,0.00,VWS V14.01,2013-02-26 05:25:00,
2013-02-25 21:30:00,36.3,35.0,30.41,SSE,151,0.0,0.0,95,0.00,,---,0.37,0.00,VWS V14.01,2013-02-26 05:30:00,
2013-02-25 21:35:00,36.3,35.0,30.42,SSE,151,0.0,1.0,95,0.00,,---,0.37,0.00,VWS V14.01,2013-02-26 05:35:00,
2013-02-25 21:40:00,36.3,35.0,30.41,SSE,151,2.0,2.0,95,0.00,,---,0.37,0.00,VWS V14.01,2013-02-26 05:40:00,
2013-02-25 21:45:00,36.1,34.8,30.41,SSE,151,0.0,2.0,95,0.00,,---,0.37,0.00,VWS V14.01,2013-02-26 05:45:00,
2013-02-25 21:50:00,36.1,34.8,30.42,SSE,151,0.0,0.0,95,0.00,,---,0.37,0.00,VWS V14.01,2013-02-26 05:50:00,
2013-02-25 21:55:00,36.0,34.7,30.41,SSE,151,0.0,1.0,95,0.00,,---,0.37,0.00,VWS V14.01,2013-02-26 05:55:00,
2013-02-25 22:00:00,36.0,34.7,30.42,SSE,151,0.0,1.0,95,0.00,,---,0.37,0.00,VWS V14.01,2013-02-26 06:00:00,
2013-02-25 22:05:00,36.0,34.7,30.41,SSE,151,0.0,1.0,95,0.00,,---,0.37,0.00,VWS V14.01,2013-02-26 06:05:00,
2013-02-25 22:10:00,36.0,34.7,30.42,SSE,151,0.0,0.0,95,0.00,,---,0.37,0.00,VWS V14.01,2013-02-26 06:10:00,
2013-02-25 22:15:00,36.0,34.7,30.42,SSE,151,0.0,2.0,95,0.00,,---,0.37,0.00,VWS V14.01,2013-02-26 06:15:00,
2013-02-25 22:20:00,36.0,34.7,30.42,SSE,151,0.0,2.0,95,0.00,,---,0.37,0.00,VWS V14.01,2013-02-26 06:20:00,
2013-02-25 22:25:00,35.9,34.6,30.42,SSE,151,2.0,3.0,95,0.00,,---,0.37,0.00,VWS V14.01,2013-02-26 06:25:00,
2013-02-25 22:30:00,36.0,34.7,30.42,SSE,151,0.0,2.0,95,0.00,,---,0.37,0.00,VWS V14.01,2013-02-26 06:30:00,
2013-02-25 22:35:00,36.1,34.8,30.42,SSE,151,2.0,3.0,95,0.00,,---,0.37,0.00,VWS V14.01,2013-02-26 06:35:00,
2013-02-25 22:40:00,36.0,34.7,30.42,SSE,151,0.0,3.0,95,0.00,,---,0.37,0.00,VWS V14.01,2013-02-26 06:40:00,
2013-02-25 22:45:00,35.9,34.6,30.42,SSE,151,0.0,3.0,95,0.00,,---,0.37,0.00,VWS V14.01,2013-02-26 06:45:00,
2013-02-25 22:50:00,35.6,34.3,30.42,SSE,151,0.0,0.0,95,0.00,,---,0.37,0.00,VWS V14.01,2013-02-26 06:50:00,
2013-02-25 22:55:00,35.3,34.0,30.42,SSE,151,0.0,1.0,95,0.00,,---,0.37,0.00,VWS V14.01,2013-02-26 06:55:00,
2013-02-25 23:00:00,34.9,33.6,30.42,SSE,151,0.0,0.0,95,0.00,,---,0.37,0.00,VWS V14.01,2013-02-26 07:00:00,
2013-02-25 23:05:00,34.7,33.4,30.42,SSE,151,1.0,1.0,95,0.00,,---,0.37,0.00,VWS V14.01,2013-02-26 07:05:00,
2013-02-25 23:10:00,34.7,33.4,30.42,SSE,151,2.0,3.0,95,0.00,,---,0.37,0.00,VWS V14.01,2013-02-26 07:10:00,
2013-02-25 23:15:00,34.6,33.3,30.42,SSE,151,0.0,3.0,95,0.00,,---,0.37,0.00,VWS V14.01,2013-02-26 07:15:00,
2013-02-25 23:20:00,34.4,33.1,30.42,SSE,151,0.0,1.0,95,0.00,,---,0.37,0.00,VWS V14.01,2013-02-26 07:20:00,
2013-02-25 23:25:00,34.4,33.1,30.42,SSE,151,0.0,2.0,95,0.00,,---,0.37,0.00,VWS V14.01,2013-02-26 07:25:00,
2013-02-25 23:30:00,34.7,33.7,30.42,SSE,151,0.0,0.0,96,0.00,,---,0.37,0.00,VWS V14.01,2013-02-26 07:30:00,
2013-02-25 23:35:00,34.7,33.7,30.42,SSE,151,0.0,2.0,96,0.00,,---,0.37,0.00,VWS V14.01,2013-02-26 07:35:00,
2013-02-25 23:40:00,34.9,33.9,30.42,SSE,151,1.0,2.0,96,0.00,,---,0.37,0.00,VWS V14.01,2013-02-26 07:40:00,
2013-02-25 23:45:00,35.0,34.0,30.42,SSE,151,0.0,2.0,96,0.00,,---,0.37,0.00,VWS V14.01,2013-02-26 07:45:00,
2013-02-25 23:50:00,34.9,33.9,30.43,SSE,151,0.0,1.0,96,0.00,,---,0.37,0.00,VWS V14.01,2013-02-26 07:50:00,
2013-02-25 23:55:00,35.0,34.0,30.43,SSE,151,0.0,2.0,96,0.00,,---,0.37,0.00,VWS V14.01,2013-02-26 07:55:00,